createdAt,value
2019-05-23T00:00:45.646Z,3.80
2019-05-23T00:03:16.387Z,3.20
2019-05-23T00:05:55.450Z,3.90
2019-05-23T00:08:26.586Z,3.60
2019-05-23T00:11:21.487Z,3.33
2019-05-23T00:13:56.624Z,4.43
2019-05-23T00:16:27.140Z,5.90
2019-05-23T00:18:56.732Z,3.23
2019-05-23T00:21:25.256Z,3.90
2019-05-23T00:23:54.339Z,3.27
2019-05-23T00:26:23.372Z,3.73
2019-05-23T00:29:09.002Z,4.83
2019-05-23T00:31:34.693Z,4.83
2019-05-23T00:34:04.133Z,3.70
2019-05-23T00:36:34.104Z,3.47
2019-05-23T00:39:06.981Z,4.10
2019-05-23T00:41:39.499Z,3.70
2019-05-23T00:44:08.400Z,4.00
2019-05-23T00:46:37.414Z,3.93
2019-05-23T00:49:08.723Z,4.03
2019-05-23T00:51:37.606Z,4.03
2019-05-23T00:54:06.483Z,4.27
2019-05-23T00:56:36.674Z,3.50
2019-05-23T00:59:06.240Z,3.87
2019-05-23T01:01:37.881Z,4.93
2019-05-23T01:04:06.113Z,5.03
2019-05-23T01:06:35.525Z,4.67
2019-05-23T01:09:07.351Z,5.40
2019-05-23T01:11:37.273Z,5.60
2019-05-23T01:14:06.408Z,5.57
2019-05-23T01:16:36.580Z,7.57
2019-05-23T01:19:06.873Z,5.47
2019-05-23T01:21:55.544Z,4.00
2019-05-23T01:24:43.866Z,5.03
2019-05-23T01:27:14.455Z,4.93
2019-05-23T01:29:49.626Z,5.20
2019-05-23T01:32:37.881Z,7.47
2019-05-23T01:35:09.215Z,4.23
2019-05-23T01:37:38.727Z,5.20
2019-05-23T01:40:08.136Z,5.50
2019-05-23T01:42:37.812Z,5.23
2019-05-23T01:45:08.456Z,7.13
2019-05-23T01:47:37.013Z,5.70
2019-05-23T01:50:07.023Z,4.70
2019-05-23T01:52:36.921Z,5.17
2019-05-23T01:55:07.359Z,8.33
2019-05-23T01:57:35.848Z,4.97
2019-05-23T02:00:10.950Z,4.90
2019-05-23T02:02:40.590Z,5.10
2019-05-23T02:05:10.036Z,4.97
2019-05-23T02:07:38.591Z,4.60
2019-05-23T02:10:07.981Z,6.63
2019-05-23T02:12:37.390Z,7.07
2019-05-23T02:15:07.302Z,7.23
2019-05-23T02:17:37.004Z,9.77
2019-05-23T02:20:06.232Z,7.13
2019-05-23T02:22:35.734Z,5.97
2019-05-23T02:25:06.571Z,5.70
2019-05-23T02:27:35.369Z,6.80
2019-05-23T02:30:07.359Z,7.10
2019-05-23T02:32:38.677Z,7.50
2019-05-23T02:35:07.478Z,7.27
2019-05-23T02:38:02.108Z,8.10
2019-05-23T02:40:40.073Z,8.50
2019-05-23T02:43:10.873Z,9.20
2019-05-23T02:45:46.666Z,7.73
2019-05-23T02:48:25.319Z,7.40
2019-05-23T02:51:02.595Z,7.57
2019-05-23T02:53:34.770Z,9.53
2019-05-23T02:56:09.511Z,11.23
2019-05-23T02:59:20.153Z,9.70
2019-05-23T03:02:53.859Z,10.33
2019-05-23T03:05:25.562Z,9.20
2019-05-23T03:07:55.974Z,8.30
2019-05-23T03:10:27.071Z,10.27
2019-05-23T03:12:57.943Z,8.10
2019-05-23T03:15:27.963Z,9.13
2019-05-23T03:18:01.983Z,9.80
2019-05-23T03:20:30.588Z,14.80
2019-05-23T03:23:07.822Z,20.50
2019-05-23T03:26:35.522Z,23.40
2019-05-23T03:29:04.281Z,19.23
2019-05-23T03:31:45.879Z,18.77
2019-05-23T03:34:15.605Z,17.10
2019-05-23T03:36:45.801Z,14.23
2019-05-23T03:39:15.760Z,15.87
2019-05-23T03:41:44.958Z,11.40
2019-05-23T03:44:14.646Z,8.90
2019-05-23T03:46:46.361Z,7.10
2019-05-23T03:49:15.655Z,7.30
2019-05-23T03:51:44.979Z,5.97
2019-05-23T03:54:14.446Z,5.67
2019-05-23T03:56:46.124Z,7.30
2019-05-23T03:59:15.133Z,5.93
2019-05-23T04:01:48.274Z,7.07
2019-05-23T04:04:14.658Z,5.60
2019-05-23T04:06:44.525Z,8.80
2019-05-23T04:09:13.396Z,6.03
2019-05-23T04:11:41.787Z,6.40
2019-05-23T04:14:10.379Z,4.67
2019-05-23T04:16:40.166Z,5.20
2019-05-23T04:19:08.835Z,5.43
2019-05-23T04:21:37.214Z,6.43
2019-05-23T04:24:05.877Z,4.70
2019-05-23T04:26:34.372Z,5.07
2019-05-23T04:29:03.128Z,5.00
2019-05-23T04:31:32.656Z,4.57
2019-05-23T04:34:01.994Z,5.10
2019-05-23T04:36:32.390Z,5.33
2019-05-23T04:39:01.684Z,5.07
2019-05-23T04:41:30.596Z,6.70
2019-05-23T04:43:59.384Z,5.00
2019-05-23T04:46:28.305Z,6.53
2019-05-23T04:48:57.779Z,6.73
2019-05-23T04:51:26.400Z,5.67
2019-05-23T04:53:54.977Z,6.67
2019-05-23T04:56:24.703Z,5.90
2019-05-23T04:58:53.200Z,5.70
2019-05-23T05:01:23.878Z,5.03
2019-05-23T05:03:53.388Z,5.87
2019-05-23T05:06:22.058Z,7.23
2019-05-23T05:08:51.767Z,5.80
2019-05-23T05:11:21.426Z,6.23
2019-05-23T05:13:51.987Z,5.10
2019-05-23T05:16:20.460Z,6.33
2019-05-23T05:18:49.059Z,7.40
2019-05-23T05:21:17.709Z,6.53
2019-05-23T05:23:46.282Z,5.83
2019-05-23T05:26:21.740Z,7.00
2019-05-23T05:28:51.185Z,6.30
2019-05-23T05:31:21.337Z,5.83
2019-05-23T05:33:50.154Z,12.87
2019-05-23T05:36:18.544Z,8.70
2019-05-23T05:38:47.319Z,5.40
2019-05-23T05:41:16.499Z,5.20
2019-05-23T05:43:45.697Z,6.00
2019-05-23T05:46:14.767Z,6.23
2019-05-23T05:48:43.345Z,6.07
2019-05-23T05:51:12.333Z,5.23
2019-05-23T05:53:41.190Z,6.43
2019-05-23T05:56:09.709Z,10.93
2019-05-23T05:58:38.172Z,5.73
2019-05-23T06:01:10.327Z,6.57
2019-05-23T06:03:40.485Z,6.27
2019-05-23T06:06:17.018Z,6.20
2019-05-23T06:08:46.475Z,4.93
2019-05-23T06:11:15.563Z,6.03
2019-05-23T06:13:44.827Z,7.63
2019-05-23T06:16:13.492Z,5.90
2019-05-23T06:18:42.180Z,5.70
2019-05-23T06:21:11.759Z,6.30
2019-05-23T06:23:40.763Z,8.60
2019-05-23T06:26:09.738Z,6.37
2019-05-23T06:28:39.603Z,5.90
2019-05-23T06:31:08.411Z,6.97
2019-05-23T06:33:37.408Z,6.97
2019-05-23T06:36:06.616Z,6.50
2019-05-23T06:38:35.163Z,6.17
2019-05-23T06:41:05.151Z,6.03
2019-05-23T06:43:35.359Z,7.13
2019-05-23T06:46:04.441Z,6.23
2019-05-23T06:48:33.790Z,7.23
2019-05-23T06:51:02.177Z,6.20
2019-05-23T06:53:30.751Z,5.93
2019-05-23T06:55:59.230Z,6.57
2019-05-23T06:58:28.389Z,5.70
2019-05-23T07:00:56.855Z,5.43
2019-05-23T07:03:41.678Z,7.30
2019-05-23T07:05:58.266Z,7.40
2019-05-23T07:08:29.542Z,7.83
2019-05-23T07:10:58.135Z,7.43
2019-05-23T07:13:29.072Z,7.10
2019-05-23T07:15:57.819Z,6.83
2019-05-23T07:18:26.677Z,6.57
2019-05-23T07:20:55.740Z,7.20
2019-05-23T07:23:24.253Z,6.37
2019-05-23T07:25:52.750Z,5.83
2019-05-23T07:28:21.330Z,5.80
2019-05-23T07:30:50.393Z,6.57
2019-05-23T07:33:18.823Z,6.40
2019-05-23T07:35:47.309Z,7.90
2019-05-23T07:38:15.984Z,8.00
2019-05-23T07:40:45.250Z,5.53
2019-05-23T07:43:14.132Z,5.90
2019-05-23T07:45:48.644Z,5.57
2019-05-23T07:48:17.533Z,5.50
2019-05-23T07:50:46.003Z,5.00
2019-05-23T07:53:23.189Z,5.37
2019-05-23T07:55:53.519Z,7.00
2019-05-23T07:58:22.011Z,8.70
2019-05-23T08:00:55.795Z,6.10
2019-05-23T08:03:28.642Z,5.53
2019-05-23T08:05:57.124Z,5.50
2019-05-23T08:08:26.740Z,4.70
2019-05-23T08:10:55.303Z,9.93
2019-05-23T08:13:24.741Z,7.33
2019-05-23T08:15:53.510Z,11.10
2019-05-23T08:18:22.080Z,5.93
2019-05-23T08:20:50.549Z,5.80
2019-05-23T08:23:19.175Z,5.50
2019-05-23T08:25:49.590Z,5.57
2019-05-23T08:28:18.864Z,5.10
2019-05-23T08:30:47.494Z,5.10
2019-05-23T08:33:16.097Z,4.67
2019-05-23T08:35:45.025Z,4.23
2019-05-23T08:38:13.915Z,5.70
2019-05-23T08:40:42.907Z,4.50
2019-05-23T08:43:11.529Z,4.67
2019-05-23T08:45:40.189Z,5.50
2019-05-23T08:48:09.365Z,5.30
2019-05-23T08:50:39.627Z,4.10
2019-05-23T08:53:09.316Z,4.00
2019-05-23T08:55:40.210Z,4.27
2019-05-23T08:58:11.382Z,5.10
2019-05-23T09:00:43.262Z,3.73
2019-05-23T09:03:12.175Z,4.07
2019-05-23T09:05:40.759Z,3.87
2019-05-23T09:08:11.049Z,3.93
2019-05-23T09:10:40.386Z,4.97
2019-05-23T09:13:08.908Z,4.00
2019-05-23T09:15:37.625Z,3.30
2019-05-23T09:18:07.360Z,3.40
2019-05-23T09:20:36.718Z,3.23
2019-05-23T09:23:05.331Z,2.77
2019-05-23T09:25:34.525Z,3.73
2019-05-23T09:28:03.343Z,4.13
2019-05-23T09:30:32.926Z,2.70
2019-05-23T09:33:02.533Z,2.37
2019-05-23T09:35:31.718Z,2.50
2019-05-23T09:38:00.122Z,2.53
2019-05-23T09:40:30.464Z,2.37
2019-05-23T09:42:59.436Z,2.60
2019-05-23T09:45:27.795Z,2.77
2019-05-23T09:47:56.170Z,2.20
2019-05-23T09:50:25.016Z,4.60
2019-05-23T09:52:53.592Z,4.73
2019-05-23T09:55:22.804Z,2.17
2019-05-23T09:57:51.760Z,3.33
2019-05-23T10:00:23.164Z,1.83
2019-05-23T10:02:51.823Z,2.93
2019-05-23T10:05:40.189Z,3.83
2019-05-23T10:07:50.877Z,1.90
2019-05-23T10:10:19.606Z,2.30
2019-05-23T10:12:48.168Z,3.17
2019-05-23T10:15:32.542Z,2.00
2019-05-23T10:18:01.275Z,4.10
2019-05-23T10:20:31.496Z,2.10
2019-05-23T10:23:00.033Z,3.20
2019-05-23T10:25:28.486Z,2.10
2019-05-23T10:27:57.466Z,2.37
2019-05-23T10:30:26.047Z,1.70
2019-05-23T10:32:54.570Z,2.50
2019-05-23T10:35:23.430Z,2.07
2019-05-23T10:37:51.854Z,2.40
2019-05-23T10:40:20.719Z,1.97
2019-05-23T10:42:49.096Z,3.20
2019-05-23T10:45:17.787Z,2.03
2019-05-23T10:47:46.155Z,3.83
2019-05-23T10:50:16.150Z,2.30
2019-05-23T10:52:44.989Z,2.47
2019-05-23T10:55:13.468Z,2.40
2019-05-23T10:57:41.833Z,2.13
2019-05-23T11:00:21.323Z,2.23
2019-05-23T11:02:50.123Z,2.40
2019-05-23T11:05:19.255Z,2.10
2019-05-23T11:07:48.341Z,2.73
2019-05-23T11:10:19.215Z,2.60
2019-05-23T11:12:48.282Z,2.33
2019-05-23T11:15:16.943Z,2.03
2019-05-23T11:17:45.628Z,2.40
2019-05-23T11:20:16.771Z,3.37
2019-05-23T11:22:45.489Z,2.00
2019-05-23T11:25:16.751Z,4.20
2019-05-23T11:27:45.824Z,2.40
2019-05-23T11:30:32.353Z,2.73
2019-05-23T11:33:00.943Z,2.40
2019-05-23T11:35:29.516Z,2.67
2019-05-23T11:37:57.985Z,2.50
2019-05-23T11:40:26.921Z,2.40
2019-05-23T11:42:55.418Z,2.60
2019-05-23T11:45:25.704Z,4.93
2019-05-23T11:47:54.569Z,2.50
2019-05-23T11:50:22.967Z,2.30
2019-05-23T11:52:55.705Z,2.17
2019-05-23T11:55:22.635Z,2.43
2019-05-23T11:57:53.534Z,2.50
2019-05-23T12:01:20.636Z,2.17
2019-05-23T12:03:44.803Z,2.80
2019-05-23T12:06:15.316Z,2.57
2019-05-23T12:08:44.033Z,3.17
2019-05-23T12:11:13.264Z,2.53
2019-05-23T12:13:41.909Z,2.27
2019-05-23T12:16:10.446Z,3.63
2019-05-23T12:18:38.936Z,2.30
2019-05-23T12:21:07.302Z,2.30
2019-05-23T12:23:35.819Z,2.53
2019-05-23T12:26:06.016Z,3.17
2019-05-23T12:28:34.482Z,2.40
2019-05-23T12:31:04.131Z,2.60
2019-05-23T12:33:32.656Z,2.77
2019-05-23T12:36:01.047Z,4.33
2019-05-23T12:38:29.612Z,2.97
2019-05-23T12:40:58.304Z,2.27
2019-05-23T12:43:26.773Z,2.80
2019-05-23T12:45:56.966Z,3.53
2019-05-23T12:48:39.020Z,2.40
2019-05-23T12:51:07.778Z,2.17
2019-05-23T12:53:36.375Z,2.33
2019-05-23T12:56:05.367Z,2.30
2019-05-23T12:58:34.540Z,2.67
2019-05-23T13:01:05.937Z,2.20
2019-05-23T13:03:34.809Z,2.30
2019-05-23T13:06:04.379Z,2.03
2019-05-23T13:08:33.062Z,2.70
2019-05-23T13:11:01.416Z,1.70
2019-05-23T13:13:30.361Z,2.40
2019-05-23T13:15:59.073Z,3.20
2019-05-23T13:18:27.920Z,2.27
2019-05-23T13:20:59.171Z,2.70
2019-05-23T13:23:27.140Z,1.90
2019-05-23T13:25:55.620Z,2.13
2019-05-23T13:28:24.297Z,3.73
2019-05-23T13:30:52.829Z,2.30
2019-05-23T13:33:21.505Z,2.63
2019-05-23T13:35:50.628Z,2.93
2019-05-23T13:38:19.346Z,5.87
2019-05-23T13:40:47.678Z,3.00
2019-05-23T13:43:16.121Z,2.53
2019-05-23T13:45:44.943Z,3.10
2019-05-23T13:48:13.329Z,2.83
2019-05-23T13:50:42.245Z,2.23
2019-05-23T13:53:11.897Z,2.37
2019-05-23T13:55:40.257Z,2.20
2019-05-23T13:58:09.054Z,2.73
2019-05-23T14:00:38.139Z,2.40
2019-05-23T14:03:07.556Z,2.03
2019-05-23T14:05:37.006Z,3.60
2019-05-23T14:08:13.141Z,2.10
2019-05-23T14:10:39.003Z,2.50
2019-05-23T14:13:07.913Z,2.60
2019-05-23T14:15:42.508Z,2.77
2019-05-23T14:18:14.760Z,2.73
2019-05-23T14:20:43.593Z,2.20
2019-05-23T14:23:21.156Z,3.33
2019-05-23T14:25:49.866Z,2.97
2019-05-23T14:28:18.632Z,2.20
2019-05-23T14:31:04.032Z,2.47
2019-05-23T14:33:41.204Z,2.33
2019-05-23T14:36:16.630Z,2.23
2019-05-23T14:38:45.809Z,2.63
2019-05-23T14:41:14.208Z,2.93
2019-05-23T14:43:45.592Z,2.90
2019-05-23T14:46:16.236Z,3.40
2019-05-23T14:48:57.634Z,2.83
2019-05-23T14:51:39.709Z,2.23
2019-05-23T14:54:18.309Z,2.40
2019-05-23T14:56:47.013Z,2.87
2019-05-23T14:59:15.715Z,2.33
2019-05-23T15:01:44.685Z,6.20
2019-05-23T15:04:14.318Z,2.20
2019-05-23T15:06:42.903Z,3.60
2019-05-23T15:09:11.272Z,2.30
2019-05-23T15:11:40.251Z,2.93
2019-05-23T15:14:08.785Z,2.33
2019-05-23T15:16:37.366Z,2.57
2019-05-23T15:19:05.962Z,1.73
2019-05-23T15:21:34.445Z,2.97
2019-05-23T15:24:03.236Z,2.20
2019-05-23T15:26:31.732Z,2.27
2019-05-23T15:29:00.144Z,1.93
2019-05-23T15:31:30.540Z,2.40
2019-05-23T15:33:59.017Z,2.50
2019-05-23T15:36:27.472Z,1.73
2019-05-23T15:39:09.127Z,2.47
2019-05-23T15:41:26.423Z,3.30
2019-05-23T15:43:54.859Z,3.00
2019-05-23T15:46:23.426Z,3.40
2019-05-23T15:48:51.903Z,3.60
2019-05-23T15:51:24.904Z,2.50
2019-05-23T15:54:11.838Z,3.60
2019-05-23T15:56:54.059Z,3.60
2019-05-23T15:59:36.608Z,2.20
2019-05-23T16:02:17.752Z,3.77
2019-05-23T16:04:46.324Z,4.40
2019-05-23T16:07:16.512Z,3.53
2019-05-23T16:09:45.699Z,8.20
2019-05-23T16:12:14.622Z,5.00
2019-05-23T16:14:43.693Z,3.60
2019-05-23T16:17:13.088Z,2.80
2019-05-23T16:19:42.198Z,4.20
2019-05-23T16:22:11.310Z,3.73
2019-05-23T16:24:39.756Z,4.37
2019-05-23T16:27:08.464Z,2.13
2019-05-23T16:29:37.759Z,2.07
2019-05-23T16:32:06.385Z,2.60
2019-05-23T16:34:35.441Z,3.93
2019-05-23T16:37:05.606Z,4.40
2019-05-23T16:39:46.879Z,2.93
2019-05-23T16:42:07.055Z,3.20
2019-05-23T16:44:35.524Z,2.80
2019-05-23T16:47:03.978Z,3.17
2019-05-23T16:49:32.519Z,3.00
2019-05-23T16:52:01.082Z,4.43
2019-05-23T16:54:34.488Z,2.30
2019-05-23T16:57:14.095Z,5.83
2019-05-23T16:59:47.745Z,3.10
2019-05-23T17:02:41.723Z,3.00
2019-05-23T17:05:29.703Z,3.10
2019-05-23T17:08:17.977Z,2.93
2019-05-23T17:10:55.076Z,2.70
2019-05-23T17:13:34.319Z,2.70
2019-05-23T17:16:15.379Z,3.97
2019-05-23T17:19:07.035Z,3.50
2019-05-23T17:21:53.776Z,2.83
2019-05-23T17:24:31.202Z,3.60
2019-05-23T17:27:25.246Z,3.97
2019-05-23T17:30:00.944Z,3.57
2019-05-23T17:32:33.097Z,2.43
2019-05-23T17:35:01.733Z,3.97
2019-05-23T17:37:31.347Z,3.10
2019-05-23T17:39:59.853Z,2.77
2019-05-23T17:42:28.345Z,4.70
2019-05-23T17:44:56.873Z,3.67
2019-05-23T17:47:25.513Z,3.37
2019-05-23T17:49:55.358Z,6.13
2019-05-23T17:52:23.860Z,3.43
2019-05-23T17:54:52.985Z,2.83
2019-05-23T17:57:23.304Z,2.80
2019-05-23T17:59:51.895Z,3.60
2019-05-23T18:02:21.871Z,6.10
2019-05-23T18:04:50.604Z,3.00
2019-05-23T18:07:19.521Z,4.23
2019-05-23T18:09:51.268Z,6.87
2019-05-23T18:12:20.561Z,3.43
2019-05-23T18:14:50.344Z,3.53
2019-05-23T18:17:19.590Z,2.93
2019-05-23T18:19:47.960Z,4.73
2019-05-23T18:22:17.876Z,3.47
2019-05-23T18:24:46.933Z,4.03
2019-05-23T18:27:19.168Z,3.20
2019-05-23T18:29:49.725Z,3.80
2019-05-23T18:32:22.303Z,3.20
2019-05-23T18:34:50.811Z,3.00
2019-05-23T18:37:19.292Z,3.70
2019-05-23T18:39:47.788Z,4.80
2019-05-23T18:42:16.496Z,3.53
2019-05-23T18:44:45.199Z,3.00
2019-05-23T18:47:21.505Z,3.90
2019-05-23T18:49:49.962Z,4.00
2019-05-23T18:52:18.955Z,4.63
2019-05-23T18:54:47.872Z,3.70
2019-05-23T18:57:16.382Z,3.00
2019-05-23T18:59:44.893Z,3.93
2019-05-23T19:02:13.888Z,4.97
2019-05-23T19:04:42.675Z,2.80
2019-05-23T19:07:13.168Z,2.90
2019-05-23T19:09:42.120Z,3.47
2019-05-23T19:12:11.099Z,2.77
2019-05-23T19:14:40.638Z,5.73
2019-05-23T19:17:09.242Z,2.80
2019-05-23T19:19:38.484Z,2.90
2019-05-23T19:22:07.380Z,3.63
2019-05-23T19:24:36.273Z,3.07
2019-05-23T19:27:05.252Z,3.80
2019-05-23T19:29:34.091Z,3.30
2019-05-23T19:32:05.333Z,3.60
2019-05-23T19:34:34.289Z,4.17
2019-05-23T19:37:05.225Z,3.27
2019-05-23T19:39:34.713Z,4.00
2019-05-23T19:42:03.691Z,4.30
2019-05-23T19:44:32.109Z,5.10
2019-05-23T19:47:01.286Z,4.60
2019-05-23T19:49:30.503Z,3.43
2019-05-23T19:51:59.174Z,3.27
2019-05-23T19:54:27.895Z,4.80
2019-05-23T19:56:56.736Z,3.93
2019-05-23T19:59:25.183Z,3.00
2019-05-23T20:02:16.842Z,3.13
2019-05-23T20:04:53.631Z,3.30
2019-05-23T20:07:25.224Z,3.43
2019-05-23T20:09:57.280Z,3.47
2019-05-23T20:12:24.845Z,2.40
2019-05-23T20:14:53.347Z,3.10
2019-05-23T20:17:22.158Z,5.93
2019-05-23T20:19:50.878Z,3.17
2019-05-23T20:22:19.583Z,4.73
2019-05-23T20:24:48.149Z,2.70
2019-05-23T20:27:16.790Z,2.37
2019-05-23T20:29:45.230Z,3.43
2019-05-23T20:32:14.555Z,4.50
2019-05-23T20:34:43.090Z,3.60
2019-05-23T20:37:12.315Z,2.60
2019-05-23T20:39:40.698Z,2.80
2019-05-23T20:42:11.868Z,2.77
2019-05-23T20:44:39.442Z,2.60
2019-05-23T20:47:08.432Z,2.70
2019-05-23T20:49:37.007Z,2.77
2019-05-23T20:52:07.119Z,2.80
2019-05-23T20:54:35.945Z,2.80
2019-05-23T20:57:04.764Z,2.60
2019-05-23T20:59:33.487Z,3.23
2019-05-23T21:02:02.787Z,3.30
2019-05-23T21:04:31.911Z,3.33
2019-05-23T21:07:00.389Z,3.93
2019-05-23T21:09:28.904Z,3.10
2019-05-23T21:11:57.311Z,3.00
2019-05-23T21:14:25.924Z,4.30
2019-05-23T21:16:54.297Z,2.40
2019-05-23T21:19:22.879Z,2.60
2019-05-23T21:21:51.369Z,2.40
2019-05-23T21:24:20.243Z,2.80
2019-05-23T21:26:48.644Z,2.40
2019-05-23T21:29:17.018Z,1.97
2019-05-23T21:31:45.627Z,1.87
2019-05-23T21:34:14.112Z,2.67
2019-05-23T21:36:42.683Z,2.77
2019-05-23T21:39:12.292Z,2.37
2019-05-23T21:41:42.460Z,1.80
2019-05-23T21:44:10.905Z,2.93
2019-05-23T21:46:39.474Z,3.40
2019-05-23T21:49:07.868Z,2.63
2019-05-23T21:51:38.150Z,2.57
2019-05-23T21:54:06.758Z,2.67
2019-05-23T21:56:35.136Z,3.43
2019-05-23T21:59:03.816Z,2.80
2019-05-23T22:01:54.659Z,2.90
2019-05-23T22:04:28.193Z,3.90
2019-05-23T22:06:58.411Z,3.27
2019-05-23T22:09:28.826Z,3.30
2019-05-23T22:11:57.572Z,2.23
2019-05-23T22:14:26.017Z,3.17
2019-05-23T22:16:54.623Z,3.30
2019-05-23T22:19:24.304Z,3.10
2019-05-23T22:21:52.980Z,2.70
2019-05-23T22:24:21.600Z,2.50
2019-05-23T22:26:50.159Z,2.87
2019-05-23T22:29:18.739Z,3.40
2019-05-23T22:31:47.234Z,2.67
2019-05-23T22:34:41.181Z,3.20
2019-05-23T22:37:16.177Z,2.90
2019-05-23T22:39:44.706Z,2.70
2019-05-23T22:42:13.672Z,5.20
2019-05-23T22:44:42.414Z,4.87
2019-05-23T22:47:10.879Z,2.90
2019-05-23T22:49:39.470Z,3.57
2019-05-23T22:52:07.860Z,3.27
2019-05-23T22:54:36.338Z,4.07
2019-05-23T22:57:04.932Z,3.63
2019-05-23T22:59:33.509Z,3.30
2019-05-23T23:02:03.905Z,3.33
2019-05-23T23:04:32.301Z,2.90
2019-05-23T23:07:00.777Z,3.20
2019-05-23T23:09:29.246Z,4.00
2019-05-23T23:11:57.775Z,3.60
2019-05-23T23:14:26.430Z,4.03
2019-05-23T23:16:55.133Z,2.83
2019-05-23T23:19:23.514Z,4.43
2019-05-23T23:21:52.002Z,3.10
2019-05-23T23:24:20.668Z,2.80
2019-05-23T23:26:49.280Z,3.30
2019-05-23T23:29:17.672Z,6.20
2019-05-23T23:31:47.947Z,3.13
2019-05-23T23:34:16.617Z,2.93
2019-05-23T23:36:45.087Z,2.70
2019-05-23T23:39:13.454Z,3.60
2019-05-23T23:41:41.943Z,3.70
2019-05-23T23:44:10.957Z,4.03
2019-05-23T23:46:57.778Z,3.60
2019-05-23T23:49:44.790Z,3.90
2019-05-23T23:52:31.715Z,3.10
2019-05-23T23:55:18.569Z,2.83
2019-05-23T23:57:58.842Z,3.10
